Time;durP1;ratioP1;P1;durP2;ratioP2;P2;SDS_P1;SDS_P2;PMS_P1;PMS_P2;Temp;Humidity;BMP_temperature;BMP_pressure;BME280_temperature;BME280_humidity;BME280_pressure;Samples;Min_cycle;Max_cycle;Signal;HPM_P1;HPM_P2
2022/01/24 00:01:27;;;;;;;38.58;18.50;;;4.70;99.90;;;;;;5043146;28;20136;-73
2022/01/24 00:03:57;;;;;;;25.48;12.13;;;4.80;99.90;;;;;;5063478;28;20406;-73
2022/01/24 00:06:25;;;;;;;26.63;14.02;;;4.80;99.90;;;;;;5054315;28;20052;-73
2022/01/24 00:08:52;;;;;;;40.28;20.23;;;4.80;99.90;;;;;;5042709;28;20135;-73
2022/01/24 00:11:24;;;;;;;44.35;19.85;;;4.80;99.90;;;;;;5041478;28;20082;-73
2022/01/24 00:27:16;;;;;;;16.75;8.77;;;4.60;99.90;;;;;;5050268;28;20267;-73
2022/01/24 00:29:43;;;;;;;17.90;9.48;;;4.60;99.90;;;;;;5027740;28;20134;-73
2022/01/24 00:32:10;;;;;;;15.63;8.15;;;4.70;99.90;;;;;;5023614;28;20556;-73
2022/01/24 00:34:36;;;;;;;17.52;9.23;;;4.70;99.90;;;;;;5050575;28;20139;-73
2022/01/24 00:37:04;;;;;;;18.08;9.48;;;4.60;99.90;;;;;;5062446;28;20044;-73
2022/01/24 00:39:30;;;;;;;17.10;8.95;;;4.60;99.90;;;;;;5027869;28;20136;-73
2022/01/24 00:42:14;;;;;;;15.20;8.18;;;4.60;99.90;;;;;;5033710;28;20048;-74
2022/01/24 00:56:06;;;;;;;17.13;9.52;;;4.50;99.90;;;;;;5055090;28;20360;-72
2022/01/24 00:58:33;;;;;;;17.73;9.27;;;4.60;99.90;;;;;;5061895;28;20133;-73
2022/01/24 01:01:00;;;;;;;19.33;9.95;;;4.60;99.90;;;;;;5061201;28;20074;-74
2022/01/24 01:03:27;;;;;;;14.75;9.00;;;4.70;99.90;;;;;;5024216;28;20499;-73
2022/01/24 01:19:09;;;;;;;24.52;10.25;;;4.80;99.90;;;;;;5061842;28;20052;-72
2022/01/24 01:21:36;;;;;;;18.85;9.45;;;4.80;99.90;;;;;;5042322;28;20125;-73
2022/01/24 01:24:03;;;;;;;21.35;10.00;;;4.80;99.90;;;;;;5062088;28;20106;-73
2022/01/24 01:27:17;;;;;;;20.20;10.25;;;4.90;99.90;;;;;;5061514;28;20395;-74
2022/01/24 01:29:25;;;;;;;19.35;9.90;;;4.90;99.90;;;;;;5051003;28;20113;-73
2022/01/24 01:32:15;;;;;;;22.15;11.32;;;5.00;99.90;;;;;;5059190;28;20268;-73
2022/01/24 01:35:00;;;;;;;21.35;12.63;;;4.90;99.90;;;;;;5061265;28;20148;-73
2022/01/24 01:54:23;;;;;;;22.48;13.00;;;4.80;99.90;;;;;;5061617;28;20578;-73
2022/01/24 01:56:49;;;;;;;26.17;14.15;;;4.70;99.90;;;;;;5060526;28;20126;-73
2022/01/24 01:59:16;;;;;;;30.17;12.85;;;4.80;99.90;;;;;;5042193;28;20064;-73
2022/01/24 02:01:43;;;;;;;26.00;14.15;;;4.80;99.90;;;;;;5042644;28;20131;-73
2022/01/24 02:04:10;;;;;;;18.77;10.18;;;4.80;99.90;;;;;;5026649;28;20052;-74
2022/01/24 02:06:38;;;;;;;26.63;10.60;;;4.80;99.90;;;;;;5060419;28;20256;-72
2022/01/24 02:09:09;;;;;;;19.67;11.10;;;4.70;99.90;;;;;;5032235;28;20052;-73
2022/01/24 02:11:36;;;;;;;19.98;10.73;;;4.70;99.90;;;;;;5055259;28;20526;-73
2022/01/24 02:14:07;;;;;;;23.45;11.57;;;4.70;99.90;;;;;;5054135;28;20049;-74
2022/01/24 02:16:45;;;;;;;20.70;10.55;;;4.70;99.90;;;;;;5042421;28;20270;-74
2022/01/24 02:19:23;;;;;;;22.00;12.20;;;4.70;99.90;;;;;;5061339;28;20052;-74
2022/01/24 02:24:38;;;;;;;22.73;11.77;;;4.80;99.90;;;;;;5060421;28;20532;-74
2022/01/24 02:27:05;;;;;;;20.60;11.10;;;4.80;99.90;;;;;;5042024;28;20078;-74
2022/01/24 02:29:49;;;;;;;17.05;9.40;;;4.80;99.90;;;;;;5060252;28;20537;-73
2022/01/24 02:32:16;;;;;;;16.98;9.07;;;4.80;99.90;;;;;;5042237;28;20122;-73
2022/01/24 02:34:46;;;;;;;14.48;8.07;;;4.80;99.90;;;;;;5049367;28;20143;-73
2022/01/24 02:37:17;;;;;;;17.73;9.35;;;4.80;99.90;;;;;;5067620;28;20127;-73
2022/01/24 02:39:47;;;;;;;15.60;8.38;;;4.80;99.90;;;;;;5057648;28;20052;-74
2022/01/24 02:53:22;;;;;;;13.07;6.35;;;4.70;99.90;;;;;;5066780;28;20203;-73
2022/01/24 02:55:49;;;;;;;15.40;7.63;;;4.80;99.90;;;;;;5040885;28;20044;-73
2022/01/24 02:58:18;;;;;;;13.98;7.60;;;4.80;99.90;;;;;;5067670;28;20044;-72
2022/01/24 03:00:46;;;;;;;13.25;7.78;;;4.80;99.90;;;;;;5047824;28;20069;-72
2022/01/24 03:03:14;;;;;;;12.90;7.05;;;4.80;99.90;;;;;;5042590;28;20051;-73
2022/01/24 03:05:41;;;;;;;14.82;6.82;;;4.80;99.90;;;;;;5064419;28;20155;-72
2022/01/24 03:08:08;;;;;;;9.18;5.20;;;4.70;99.90;;;;;;5051595;28;20079;-72
2022/01/24 03:10:42;;;;;;;8.82;5.70;;;4.70;99.90;;;;;;5049358;28;20094;-73
2022/01/24 03:15:49;;;;;;;7.40;5.63;;;4.60;99.90;;;;;;5065987;28;20045;-72
2022/01/24 03:18:17;;;;;;;9.23;6.20;;;4.60;99.90;;;;;;5067019;28;20083;-73
2022/01/24 03:20:44;;;;;;;9.93;5.90;;;4.60;99.90;;;;;;5049087;28;20056;-73
2022/01/24 03:23:12;;;;;;;6.63;5.05;;;4.60;99.90;;;;;;5066257;28;20499;-72
2022/01/24 03:25:40;;;;;;;7.75;5.85;;;4.50;99.90;;;;;;5067294;28;20376;-72
2022/01/24 03:28:06;;;;;;;6.15;4.75;;;4.50;99.90;;;;;;5048968;28;20139;-74
2022/01/24 03:30:34;;;;;;;9.50;6.47;;;4.50;99.90;;;;;;5065413;28;20090;-72
2022/01/24 03:33:01;;;;;;;8.52;6.10;;;4.40;99.90;;;;;;5049509;28;20071;-73
2022/01/24 03:35:28;;;;;;;8.05;5.95;;;4.40;99.90;;;;;;5048594;28;20063;-72
2022/01/24 03:37:55;;;;;;;9.52;6.65;;;4.40;99.90;;;;;;5048271;28;20135;-73
2022/01/24 03:40:22;;;;;;;9.55;6.65;;;4.40;99.90;;;;;;5069879;28;20049;-72
2022/01/24 03:42:49;;;;;;;9.65;6.30;;;4.40;99.90;;;;;;5065955;28;20649;-72
2022/01/24 03:45:23;;;;;;;10.63;7.35;;;4.40;99.90;;;;;;5043085;28;20136;-73
2022/01/24 03:50:54;;;;;;;9.00;7.00;;;4.40;99.90;;;;;;5003646;28;20041;-73
2022/01/24 03:53:21;;;;;;;8.32;6.43;;;4.50;99.90;;;;;;5054134;28;20095;-73
2022/01/24 03:55:48;;;;;;;9.10;6.82;;;4.50;99.90;;;;;;5045027;28;20041;-74
2022/01/24 03:58:16;;;;;;;8.80;6.30;;;4.50;99.90;;;;;;5062790;28;20553;-73
2022/01/24 04:00:43;;;;;;;10.73;7.85;;;4.50;99.90;;;;;;5063241;28;20127;-75
2022/01/24 04:03:10;;;;;;;11.55;7.53;;;4.50;99.90;;;;;;5045803;28;20066;-72
2022/01/24 04:05:37;;;;;;;9.50;6.80;;;4.50;99.90;;;;;;5044458;28;20267;-72
2022/01/24 04:08:04;;;;;;;9.50;7.07;;;4.50;99.90;;;;;;5063130;28;20052;-73
2022/01/24 04:10:40;;;;;;;11.45;8.18;;;4.40;99.90;;;;;;5067517;28;20098;-73
2022/01/24 04:13:20;;;;;;;11.40;7.78;;;4.50;99.90;;;;;;5065181;28;20466;-72
2022/01/24 04:18:41;;;;;;;8.88;6.03;;;4.50;99.90;;;;;;5063136;28;20590;-73
2022/01/24 04:21:20;;;;;;;8.57;5.88;;;4.30;99.90;;;;;;5062706;28;20127;-72
2022/01/24 04:23:56;;;;;;;7.50;5.38;;;4.30;99.90;;;;;;5044824;28;20045;-72
2022/01/24 04:26:23;;;;;;;5.45;4.88;;;4.20;99.90;;;;;;5062502;28;20135;-75
2022/01/24 04:28:50;;;;;;;6.50;5.30;;;4.20;99.90;;;;;;5062805;28;20125;-73
2022/01/24 04:31:18;;;;;;;8.70;5.57;;;4.30;99.90;;;;;;5043868;28;20128;-73
2022/01/24 04:33:45;;;;;;;10.07;5.90;;;4.30;99.90;;;;;;5063549;28;20048;-75
2022/01/24 04:36:12;;;;;;;5.88;4.57;;;4.30;99.90;;;;;;5061880;28;20068;-73
2022/01/24 04:38:39;;;;;;;6.97;5.53;;;4.30;99.90;;;;;;5064620;28;20099;-73
2022/01/24 04:41:14;;;;;;;7.18;6.18;;;4.30;99.90;;;;;;5069677;28;20143;-73
2022/01/24 04:56:38;;;;;;;6.35;4.78;;;4.30;99.90;;;;;;5059480;28;20083;-72
2022/01/24 04:59:06;;;;;;;6.70;5.35;;;4.20;99.90;;;;;;5062072;28;20087;-72
2022/01/24 05:01:34;;;;;;;6.93;5.35;;;4.20;99.90;;;;;;5061886;28;20123;-73
2022/01/24 05:04:01;;;;;;;8.15;6.43;;;4.20;99.90;;;;;;5027789;28;20511;-73
2022/01/24 05:06:29;;;;;;;8.40;6.78;;;4.30;99.90;;;;;;5061793;28;20047;-72
2022/01/24 05:08:56;;;;;;;9.90;8.00;;;4.20;99.90;;;;;;5064795;28;20084;-72
2022/01/24 05:11:37;;;;;;;9.55;6.93;;;4.20;99.90;;;;;;5049760;28;20159;-73
2022/01/24 05:25:18;;;;;;;8.13;6.40;;;4.30;99.90;;;;;;5060978;28;20049;-73
2022/01/24 05:27:45;;;;;;;7.22;6.25;;;4.30;99.90;;;;;;5043759;28;20478;-72
2022/01/24 05:30:14;;;;;;;7.88;6.22;;;4.30;99.90;;;;;;5060125;28;20331;-73
2022/01/24 05:32:41;;;;;;;7.75;6.65;;;4.30;99.90;;;;;;5062074;28;20202;-73
2022/01/24 05:35:08;;;;;;;9.82;7.10;;;4.30;99.90;;;;;;5026890;28;20056;-73
2022/01/24 05:37:35;;;;;;;9.88;7.80;;;4.40;99.90;;;;;;5043034;28;20140;-72
2022/01/24 05:40:02;;;;;;;9.25;7.53;;;4.30;99.90;;;;;;5049416;28;20391;-73
2022/01/24 05:42:28;;;;;;;10.82;7.70;;;4.40;99.90;;;;;;5078434;28;20143;-73
2022/01/24 05:44:58;;;;;;;9.63;7.97;;;4.40;99.90;;;;;;5056205;28;20230;-73
2022/01/24 05:47:25;;;;;;;9.80;7.97;;;4.40;99.90;;;;;;5050689;28;20114;-73
2022/01/24 05:49:51;;;;;;;11.27;8.60;;;4.40;99.90;;;;;;5061925;28;20060;-73
2022/01/24 05:52:18;;;;;;;13.45;8.27;;;4.50;99.90;;;;;;5040183;28;20141;-73
2022/01/24 05:54:45;;;;;;;10.77;7.43;;;4.40;99.90;;;;;;5064639;28;20052;-73
2022/01/24 05:57:11;;;;;;;9.77;7.28;;;4.40;99.90;;;;;;5058979;28;20412;-75
2022/01/24 05:59:38;;;;;;;10.25;7.57;;;4.40;99.90;;;;;;5029718;28;20233;-73
2022/01/24 06:02:05;;;;;;;10.73;8.35;;;4.40;99.90;;;;;;5042329;28;20079;-73
2022/01/24 06:04:33;;;;;;;13.00;8.48;;;4.40;99.90;;;;;;5059878;28;20056;-73
2022/01/24 06:07:00;;;;;;;12.35;9.18;;;4.30;99.90;;;;;;5048314;28;20724;-73
2022/01/24 06:09:27;;;;;;;10.55;7.55;;;4.30;99.90;;;;;;5064391;28;20494;-73
2022/01/24 06:11:53;;;;;;;9.20;7.30;;;4.30;99.90;;;;;;5054806;28;20493;-72
2022/01/24 06:14:20;;;;;;;11.25;7.63;;;4.20;99.90;;;;;;5077391;28;20051;-72
2022/01/24 06:16:47;;;;;;;11.27;8.65;;;4.30;99.90;;;;;;5066276;28;20068;-73
2022/01/24 06:19:14;;;;;;;12.15;9.07;;;4.30;99.90;;;;;;5041563;28;20056;-73
2022/01/24 06:21:41;;;;;;;10.70;8.50;;;4.30;99.90;;;;;;5059439;28;20098;-73
2022/01/24 06:24:08;;;;;;;9.80;8.02;;;4.40;99.90;;;;;;5060207;28;20068;-73
2022/01/24 06:26:34;;;;;;;10.63;8.63;;;4.40;99.90;;;;;;5056214;28;20076;-73
2022/01/24 06:29:01;;;;;;;10.15;7.88;;;4.40;99.90;;;;;;5059835;28;20506;-73
2022/01/24 06:31:29;;;;;;;10.38;8.88;;;4.40;99.90;;;;;;5058042;28;20049;-73
2022/01/24 06:33:56;;;;;;;11.10;8.85;;;4.40;99.90;;;;;;5041273;28;20060;-73
2022/01/24 06:36:24;;;;;;;11.43;8.73;;;4.30;99.90;;;;;;5041285;28;20036;-72
2022/01/24 06:38:51;;;;;;;13.40;8.52;;;4.30;99.90;;;;;;5046350;28;20084;-73
2022/01/24 06:41:24;;;;;;;13.18;9.70;;;4.30;99.90;;;;;;5067119;28;20338;-73
2022/01/24 06:43:51;;;;;;;14.63;10.05;;;4.30;99.90;;;;;;5080528;28;20403;-73
2022/01/24 06:46:18;;;;;;;13.88;9.70;;;4.40;99.90;;;;;;5075689;28;20300;-73
2022/01/24 06:48:45;;;;;;;13.90;9.48;;;4.40;99.90;;;;;;5045275;28;20079;-73
2022/01/24 06:51:12;;;;;;;12.15;9.65;;;4.30;99.90;;;;;;5021984;28;20347;-72
2022/01/24 06:53:41;;;;;;;13.80;9.85;;;4.30;99.90;;;;;;5047038;23;20063;-73
2022/01/24 06:56:08;;;;;;;10.80;8.20;;;4.40;99.90;;;;;;5034369;28;20095;-74
2022/01/24 06:58:36;;;;;;;12.60;9.75;;;4.30;99.90;;;;;;5054788;28;20041;-73
2022/01/24 07:01:03;;;;;;;13.50;10.20;;;4.40;99.90;;;;;;5059459;28;20618;-73
2022/01/24 07:03:30;;;;;;;12.25;9.55;;;4.30;99.90;;;;;;5060580;28;20076;-73
2022/01/24 07:05:57;;;;;;;15.55;9.07;;;4.20;99.90;;;;;;5053637;28;20076;-73
2022/01/24 07:08:24;;;;;;;12.50;9.43;;;4.30;99.90;;;;;;5036324;28;20060;-73
2022/01/24 07:10:51;;;;;;;11.85;9.00;;;4.30;99.90;;;;;;5032321;28;20084;-73
2022/01/24 07:13:20;;;;;;;10.85;8.85;;;4.20;99.90;;;;;;5058237;28;20477;-73
2022/01/24 07:15:54;;;;;;;13.23;10.07;;;4.20;99.90;;;;;;5052540;28;20542;-73
2022/01/24 07:20:56;;;;;;;12.57;9.35;;;4.30;99.90;;;;;;5060952;28;20056;-74
2022/01/24 07:23:23;;;;;;;14.30;10.55;;;4.30;99.90;;;;;;5046818;28;20151;-73
2022/01/24 07:25:56;;;;;;;13.05;9.80;;;4.30;99.90;;;;;;5055836;28;20462;-73
2022/01/24 07:28:22;;;;;;;11.40;9.38;;;4.20;99.90;;;;;;5027107;28;20081;-74
2022/01/24 07:30:49;;;;;;;11.55;9.23;;;4.20;99.90;;;;;;5032845;28;20074;-73
2022/01/24 07:33:16;;;;;;;12.27;9.27;;;4.20;99.90;;;;;;5063833;28;20247;-73
2022/01/24 07:35:44;;;;;;;11.50;8.88;;;4.20;99.90;;;;;;5080343;28;20059;-73
2022/01/24 07:38:11;;;;;;;9.80;8.13;;;4.20;99.90;;;;;;5058379;28;20045;-73
2022/01/24 07:40:40;;;;;;;10.75;8.10;;;4.20;99.90;;;;;;5062125;28;20072;-74
2022/01/24 07:45:37;;;;;;;12.00;9.23;;;4.30;99.90;;;;;;5063849;28;20333;-73
2022/01/24 07:48:05;;;;;;;9.88;8.23;;;4.30;99.90;;;;;;5068984;28;20080;-73
2022/01/24 07:50:35;;;;;;;8.82;7.60;;;4.30;99.90;;;;;;5054400;28;20071;-73
2022/01/24 07:53:06;;;;;;;12.10;8.38;;;4.40;99.90;;;;;;5044212;28;20702;-74
2022/01/24 07:55:33;;;;;;;12.35;9.60;;;4.50;99.90;;;;;;5046082;28;20124;-73
2022/01/24 07:58:00;;;;;;;10.65;8.88;;;4.50;99.90;;;;;;5044439;28;20098;-74
2022/01/24 08:00:27;;;;;;;12.23;9.32;;;4.60;99.90;;;;;;5025716;28;20064;-73
2022/01/24 08:02:59;;;;;;;10.82;9.15;;;4.60;99.90;;;;;;5037696;28;20080;-74
2022/01/24 08:05:27;;;;;;;11.45;9.10;;;4.70;99.90;;;;;;5050776;28;20057;-74
2022/01/24 08:07:54;;;;;;;11.38;9.27;;;4.70;99.90;;;;;;5062192;28;20086;-73
2022/01/24 08:10:21;;;;;;;14.77;9.95;;;4.60;99.90;;;;;;5062505;28;20420;-74
2022/01/24 08:12:48;;;;;;;12.85;10.43;;;4.60;99.90;;;;;;5061813;28;20143;-73
2022/01/24 08:15:15;;;;;;;14.85;11.35;;;4.60;99.90;;;;;;5045181;28;20056;-77
2022/01/24 08:17:42;;;;;;;13.65;10.68;;;4.60;99.90;;;;;;5045825;28;20132;-76
2022/01/24 08:20:12;;;;;;;13.90;11.20;;;4.50;99.90;;;;;;5042565;28;20083;-77
2022/01/24 08:22:58;;;;;;;13.57;11.63;;;4.50;99.90;;;;;;5043017;28;20044;-77
2022/01/24 08:25:26;;;;;;;14.40;10.68;;;4.50;99.90;;;;;;5045082;28;20106;-77
2022/01/24 08:27:54;;;;;;;13.52;10.68;;;4.60;99.90;;;;;;5046638;28;20051;-77
2022/01/24 08:30:27;;;;;;;13.40;11.30;;;4.50;99.90;;;;;;5076852;28;20672;-77
2022/01/24 08:32:54;;;;;;;13.10;11.30;;;4.50;99.90;;;;;;5043593;28;20068;-77
2022/01/24 08:35:22;;;;;;;19.63;11.65;;;4.70;99.90;;;;;;5062609;28;20157;-77
2022/01/24 08:37:50;;;;;;;15.05;11.27;;;4.70;99.90;;;;;;5051590;28;20045;-76
2022/01/24 08:40:28;;;;;;;16.27;11.77;;;4.50;99.90;;;;;;5060684;28;20044;-77
2022/01/24 08:43:03;;;;;;;13.48;9.95;;;4.40;99.90;;;;;;5041778;28;20053;-77
2022/01/24 08:45:50;;;;;;;14.55;10.80;;;4.30;99.90;;;;;;5040841;28;20102;-76
2022/01/24 08:48:20;;;;;;;14.32;10.80;;;4.30;99.90;;;;;;5040864;28;20048;-77
2022/01/24 08:50:50;;;;;;;16.35;11.45;;;4.30;99.90;;;;;;5061173;28;20123;-77
2022/01/24 08:53:23;;;;;;;15.20;11.40;;;4.40;99.90;;;;;;5062548;28;20053;-77
2022/01/24 08:55:50;;;;;;;13.70;10.48;;;4.40;99.90;;;;;;5044647;28;20056;-77
2022/01/24 08:58:18;;;;;;;13.00;10.45;;;4.40;99.90;;;;;;5068477;28;20044;-77
2022/01/24 09:00:45;;;;;;;12.80;10.55;;;4.40;99.90;;;;;;5051703;28;20048;-77
2022/01/24 09:03:13;;;;;;;15.35;11.13;;;4.40;99.90;;;;;;5063150;28;20916;-77
2022/01/24 09:05:41;;;;;;;13.52;10.75;;;4.50;99.90;;;;;;5064319;28;20075;-77
2022/01/24 09:08:10;;;;;;;15.57;11.70;;;4.50;99.90;;;;;;5071144;28;20123;-77
2022/01/24 09:10:39;;;;;;;14.13;11.10;;;4.50;99.90;;;;;;5043128;28;20045;-77
2022/01/24 09:13:07;;;;;;;14.48;11.13;;;4.50;99.90;;;;;;5044915;28;20060;-77
2022/01/24 09:15:34;;;;;;;12.77;9.68;;;4.50;99.90;;;;;;5043465;28;20049;-77
2022/01/24 09:18:01;;;;;;;13.65;9.77;;;4.50;99.90;;;;;;5043450;28;20037;-77
2022/01/24 09:20:28;;;;;;;13.45;9.70;;;4.40;99.90;;;;;;5042697;28;20144;-76
2022/01/24 09:22:55;;;;;;;11.93;9.60;;;4.40;99.90;;;;;;5040509;28;20379;-77
2022/01/24 09:25:22;;;;;;;13.75;10.23;;;4.30;99.90;;;;;;5043483;28;20081;-76
2022/01/24 09:27:49;;;;;;;13.02;9.65;;;4.30;99.90;;;;;;5061859;28;20053;-77
2022/01/24 09:30:20;;;;;;;14.32;10.35;;;4.30;99.90;;;;;;5009659;28;20082;-77
2022/01/24 09:32:47;;;;;;;13.35;10.13;;;4.30;99.90;;;;;;5040859;28;20049;-77
2022/01/24 09:35:14;;;;;;;15.02;10.55;;;4.30;99.90;;;;;;5042483;28;20143;-76
2022/01/24 09:37:42;;;;;;;13.07;9.93;;;4.30;99.90;;;;;;5025661;28;20136;-77
2022/01/24 09:40:13;;;;;;;32.75;16.73;;;4.30;99.90;;;;;;5039728;28;20736;-77
2022/01/24 09:42:45;;;;;;;35.85;19.15;;;4.30;99.90;;;;;;5054489;28;20063;-77
2022/01/24 09:45:14;;;;;;;13.77;10.05;;;4.30;99.90;;;;;;5040139;28;20122;-77
2022/01/24 09:47:41;;;;;;;13.18;9.93;;;4.30;99.90;;;;;;5055487;28;20044;-77
2022/01/24 09:50:11;;;;;;;19.80;14.52;;;4.40;99.90;;;;;;5049312;28;20056;-77
2022/01/24 09:52:44;;;;;;;11.80;9.43;;;4.40;99.90;;;;;;5041684;28;20053;-76
2022/01/24 09:55:12;;;;;;;13.10;9.50;;;4.40;99.90;;;;;;5022997;28;20134;-77
2022/01/24 09:57:38;;;;;;;15.77;11.30;;;4.40;99.90;;;;;;5023521;28;20062;-77
2022/01/24 10:00:09;;;;;;;14.75;10.73;;;4.50;99.90;;;;;;5031776;28;20299;-77
2022/01/24 10:02:39;;;;;;;16.17;11.27;;;4.50;99.90;;;;;;5043782;28;20048;-76
2022/01/24 10:05:15;;;;;;;16.75;10.68;;;4.40;99.90;;;;;;5043393;28;20239;-78
2022/01/24 10:07:51;;;;;;;15.85;11.82;;;4.40;99.90;;;;;;5056298;28;20090;-75
2022/01/24 10:10:31;;;;;;;17.10;11.05;;;4.40;99.90;;;;;;5062401;28;20255;-72
2022/01/24 10:19:14;;;;;;;13.50;10.77;;;4.30;99.90;;;;;;5042348;28;20053;-73
2022/01/24 10:22:04;;;;;;;12.73;9.70;;;4.30;99.90;;;;;;5062502;28;20052;-73
2022/01/24 10:24:32;;;;;;;11.85;9.02;;;4.30;99.90;;;;;;5052197;28;20511;-72
2022/01/24 10:27:20;;;;;;;10.50;8.45;;;4.30;99.90;;;;;;5056607;28;20156;-73
2022/01/24 10:29:57;;;;;;;12.50;9.13;;;4.30;99.90;;;;;;5058172;28;20048;-73
2022/01/24 10:32:32;;;;;;;12.48;9.00;;;4.40;99.90;;;;;;5060395;28;20052;-72
2022/01/24 10:35:30;;;;;;;11.25;8.13;;;4.30;99.90;;;;;;5060862;28;20049;-73
2022/01/24 10:38:27;;;;;;;10.68;8.13;;;4.40;99.90;;;;;;5061262;28;20331;-73
2022/01/24 10:41:51;;;;;;;10.13;8.60;;;4.50;99.90;;;;;;5059608;28;20872;-73
2022/01/24 10:44:02;;;;;;;11.73;8.65;;;4.60;99.90;;;;;;5037096;28;20514;-73
2022/01/24 10:46:49;;;;;;;16.95;10.60;;;4.50;99.90;;;;;;5046667;28;20147;-73
2022/01/24 10:49:30;;;;;;;11.07;8.70;;;4.50;99.90;;;;;;5041405;28;20526;-73
2022/01/24 10:52:11;;;;;;;13.70;9.93;;;4.40;99.90;;;;;;5059786;28;20717;-73
2022/01/24 10:54:38;;;;;;;14.35;9.75;;;4.30;99.90;;;;;;5057131;28;20045;-73
2022/01/24 10:57:05;;;;;;;12.88;8.70;;;4.30;99.90;;;;;;5043960;28;20844;-73
2022/01/24 10:59:36;;;;;;;10.23;8.18;;;4.20;99.90;;;;;;5062163;28;20056;-73
2022/01/24 11:02:04;;;;;;;9.13;8.07;;;4.20;99.90;;;;;;5044615;28;20048;-73
2022/01/24 11:04:33;;;;;;;12.40;8.60;;;4.30;99.90;;;;;;5064034;28;20044;-73
2022/01/24 11:07:03;;;;;;;13.73;9.18;;;4.20;99.90;;;;;;5075433;28;20051;-73
2022/01/24 11:09:35;;;;;;;10.48;8.25;;;4.20;99.90;;;;;;5063900;28;20456;-73
2022/01/24 11:12:12;;;;;;;12.30;9.45;;;4.10;99.90;;;;;;5062854;28;20098;-73
2022/01/24 11:14:40;;;;;;;12.48;9.45;;;4.10;99.90;;;;;;5063907;28;20520;-72
2022/01/24 11:17:10;;;;;;;11.35;8.65;;;4.20;99.90;;;;;;5060587;28;20522;-72
2022/01/24 11:19:50;;;;;;;12.13;9.13;;;4.20;99.90;;;;;;5062438;28;20044;-73
2022/01/24 11:22:22;;;;;;;9.88;8.52;;;4.30;99.90;;;;;;5041608;28;20739;-73
2022/01/24 11:24:56;;;;;;;14.07;10.38;;;4.30;99.90;;;;;;5029978;28;20526;-72
2022/01/24 11:27:35;;;;;;;12.02;9.13;;;4.40;99.90;;;;;;5042064;28;20398;-72
2022/01/24 11:30:19;;;;;;;11.90;9.88;;;4.50;99.90;;;;;;5042292;28;20056;-73
2022/01/24 11:32:57;;;;;;;11.27;9.75;;;4.40;99.90;;;;;;5042877;28;20083;-72
2022/01/24 11:35:35;;;;;;;10.25;8.25;;;4.50;99.90;;;;;;5025352;28;20102;-72
2022/01/24 11:38:02;;;;;;;13.20;9.80;;;4.40;99.90;;;;;;5044936;28;20052;-73
2022/01/24 11:40:45;;;;;;;11.88;9.10;;;4.50;99.90;;;;;;5042268;28;20656;-72
2022/01/24 11:43:47;;;;;;;12.93;10.70;;;4.50;99.90;;;;;;5045639;28;20506;-73
2022/01/24 11:46:52;;;;;;;12.70;10.13;;;4.60;99.90;;;;;;5022792;28;20093;-72
2022/01/24 11:49:22;;;;;;;15.75;10.23;;;4.70;99.90;;;;;;5059256;28;20084;-72
2022/01/24 11:51:59;;;;;;;13.30;10.45;;;4.60;99.90;;;;;;5061320;28;20126;-72
2022/01/24 11:54:31;;;;;;;11.32;9.07;;;4.50;99.90;;;;;;5049661;28;20049;-73
2022/01/24 11:57:22;;;;;;;13.05;10.00;;;4.60;99.90;;;;;;5023671;28;20094;-72
2022/01/24 12:00:12;;;;;;;12.90;9.27;;;4.60;99.90;;;;;;5030633;28;20418;-72
2022/01/24 12:02:49;;;;;;;13.40;10.02;;;4.60;99.90;;;;;;5062296;28;20437;-73
2022/01/24 12:05:24;;;;;;;13.85;10.77;;;4.50;99.90;;;;;;5043754;28;20097;-73
2022/01/24 12:08:06;;;;;;;12.40;9.90;;;4.50;99.90;;;;;;5034541;28;20110;-73
2022/01/24 12:10:55;;;;;;;13.35;8.90;;;4.30;99.90;;;;;;5040835;28;20146;-72
2022/01/24 12:13:36;;;;;;;11.40;8.98;;;4.30;99.90;;;;;;5044799;28;20608;-73
2022/01/24 12:16:10;;;;;;;13.88;10.80;;;4.20;99.90;;;;;;5058295;28;20079;-72
2022/01/24 12:18:37;;;;;;;12.35;8.90;;;4.30;99.90;;;;;;5043315;28;20044;-73
2022/01/24 12:21:08;;;;;;;14.63;9.55;;;4.40;99.90;;;;;;5060317;28;20053;-73
2022/01/24 12:23:45;;;;;;;14.13;10.23;;;4.40;99.90;;;;;;5060004;28;20659;-73
2022/01/24 12:26:41;;;;;;;12.85;8.80;;;4.40;99.90;;;;;;5040416;28;20055;-73
2022/01/24 12:29:20;;;;;;;13.40;10.13;;;4.30;99.90;;;;;;5042582;28;20060;-73
2022/01/24 12:31:58;;;;;;;13.75;10.75;;;4.20;99.90;;;;;;5036583;28;20570;-73
2022/01/24 12:34:41;;;;;;;14.35;9.45;;;4.30;99.90;;;;;;5043401;28;20139;-72
2022/01/24 12:37:21;;;;;;;13.50;9.45;;;4.30;99.90;;;;;;5056466;28;20052;-73
2022/01/24 12:39:57;;;;;;;13.90;9.75;;;4.30;99.90;;;;;;5042616;28;20126;-73
2022/01/24 12:48:19;;;;;;;14.43;10.65;;;4.20;99.90;;;;;;5041936;28;20049;-75
2022/01/24 12:50:48;;;;;;;12.55;10.02;;;4.20;99.90;;;;;;5040421;28;20156;-73
2022/01/24 12:53:16;;;;;;;12.10;9.30;;;4.20;99.90;;;;;;5045190;22;20076;-72
2022/01/24 12:55:44;;;;;;;14.68;9.57;;;4.30;99.90;;;;;;5029644;28;20410;-75
2022/01/24 12:58:11;;;;;;;14.82;10.68;;;4.10;99.90;;;;;;5041159;28;20076;-75
2022/01/24 13:00:44;;;;;;;16.17;10.52;;;4.10;99.90;;;;;;5023367;28;20044;-74
2022/01/24 13:03:12;;;;;;;20.75;13.10;;;4.00;99.90;;;;;;5041977;28;20502;-74
2022/01/24 13:05:39;;;;;;;20.13;13.73;;;4.00;99.90;;;;;;5042904;28;20569;-74
2022/01/24 13:08:06;;;;;;;17.80;11.77;;;3.90;99.90;;;;;;5040344;28;20102;-73
2022/01/24 13:10:33;;;;;;;17.38;12.43;;;3.90;99.90;;;;;;5033765;28;20093;-74
2022/01/24 13:13:05;;;;;;;23.00;15.80;;;4.00;99.90;;;;;;5062629;28;20048;-72
2022/01/24 13:21:26;;;;;;;19.08;12.65;;;4.10;99.90;;;;;;5059416;28;20101;-72
2022/01/24 13:24:00;;;;;;;21.15;13.00;;;4.20;99.90;;;;;;5043734;28;20703;-72
2022/01/24 13:26:27;;;;;;;18.33;12.17;;;4.20;99.90;;;;;;5059756;28;20130;-73
2022/01/24 13:29:05;;;;;;;18.17;12.65;;;4.10;99.90;;;;;;5043808;28;20062;-72
2022/01/24 13:31:32;;;;;;;17.63;12.05;;;4.10;99.90;;;;;;5028525;28;20307;-72
2022/01/24 13:33:59;;;;;;;19.48;12.10;;;4.20;99.90;;;;;;5034347;28;20076;-73
2022/01/24 13:36:26;;;;;;;20.83;11.55;;;4.10;99.90;;;;;;5051094;28;20170;-72
2022/01/24 13:38:53;;;;;;;17.02;11.32;;;4.00;99.90;;;;;;5069987;28;20093;-72
2022/01/24 13:41:23;;;;;;;19.60;12.25;;;4.00;99.90;;;;;;5072592;28;20521;-74
2022/01/24 13:43:51;;;;;;;19.98;12.27;;;3.90;99.90;;;;;;5080826;28;20048;-74
2022/01/24 13:46:24;;;;;;;22.10;12.77;;;3.80;99.90;;;;;;5060531;28;20182;-72
2022/01/24 13:49:16;;;;;;;19.52;12.80;;;3.80;99.90;;;;;;5043507;28;20129;-73
2022/01/24 13:51:51;;;;;;;18.88;12.55;;;3.80;99.90;;;;;;5023038;28;20071;-73
2022/01/24 13:54:21;;;;;;;17.95;12.15;;;3.90;99.90;;;;;;5055570;28;20179;-74
2022/01/24 13:56:55;;;;;;;21.65;13.70;;;3.90;99.90;;;;;;5059793;28;20040;-73
2022/01/24 13:59:25;;;;;;;23.95;15.40;;;3.80;99.90;;;;;;5042930;28;20118;-73
2022/01/24 14:02:02;;;;;;;24.05;14.48;;;3.90;99.90;;;;;;5042197;28;20435;-73
2022/01/24 14:04:49;;;;;;;26.10;14.23;;;3.80;99.90;;;;;;5060037;28;20419;-74
2022/01/24 14:07:23;;;;;;;21.35;13.80;;;3.80;99.90;;;;;;5058388;28;20032;-73
2022/01/24 14:09:54;;;;;;;22.45;14.63;;;3.80;99.90;;;;;;5035534;28;20053;-73
2022/01/24 14:12:28;;;;;;;20.58;14.00;;;3.80;99.90;;;;;;5063062;28;20334;-73
2022/01/24 14:15:27;;;;;;;21.90;14.95;;;3.80;99.90;;;;;;5070102;28;20049;-74
2022/01/24 14:18:21;;;;;;;23.13;14.50;;;3.80;99.90;;;;;;5072458;28;20056;-73
2022/01/24 14:20:51;;;;;;;24.85;14.70;;;3.90;99.90;;;;;;5045819;28;20044;-73
2022/01/24 14:23:25;;;;;;;24.48;15.05;;;3.80;99.90;;;;;;5058476;28;20127;-73
2022/01/24 14:25:54;;;;;;;26.17;14.60;;;3.70;99.90;;;;;;5060113;28;20131;-73
2022/01/24 14:28:23;;;;;;;22.63;13.50;;;3.70;99.90;;;;;;5041654;28;20106;-73
2022/01/24 14:30:54;;;;;;;25.02;13.80;;;3.80;99.90;;;;;;5040962;28;20048;-74
2022/01/24 14:33:31;;;;;;;24.35;14.45;;;3.80;99.90;;;;;;5041912;28;20087;-73
2022/01/24 14:36:16;;;;;;;24.50;14.00;;;3.70;99.90;;;;;;5040671;28;20048;-74
2022/01/24 14:38:53;;;;;;;23.10;13.95;;;3.60;99.90;;;;;;5057482;28;20048;-73
2022/01/24 14:41:28;;;;;;;24.23;14.18;;;3.60;99.90;;;;;;5052281;28;20063;-73
2022/01/24 14:46:44;;;;;;;25.33;15.20;;;3.50;99.90;;;;;;5045289;28;20040;-73
2022/01/24 14:49:13;;;;;;;27.02;16.63;;;3.50;99.90;;;;;;5041215;28;20143;-74
2022/01/24 14:51:43;;;;;;;28.77;15.63;;;3.50;99.90;;;;;;5040584;28;20220;-73
2022/01/24 14:54:15;;;;;;;28.33;17.23;;;3.40;99.90;;;;;;5040811;28;20048;-72
2022/01/24 14:56:43;;;;;;;25.95;14.80;;;3.50;99.90;;;;;;5053617;28;20102;-73
2022/01/24 14:59:11;;;;;;;29.60;18.58;;;3.40;99.90;;;;;;5054534;28;20118;-74
2022/01/24 15:01:38;;;;;;;31.45;17.48;;;3.40;99.90;;;;;;5038266;28;20041;-73
2022/01/24 15:04:06;;;;;;;30.20;17.42;;;3.30;99.90;;;;;;5037154;28;20048;-75
2022/01/24 15:06:33;;;;;;;30.05;19.45;;;3.30;99.90;;;;;;5039878;28;20493;-74
2022/01/24 15:09:05;;;;;;;23.58;15.15;;;3.30;99.90;;;;;;5064634;28;20066;-74
2022/01/24 15:11:32;;;;;;;22.00;13.45;;;3.30;99.90;;;;;;5072570;28;20051;-73